Terminal Aerodrome Forecast
Issued by NWS

Current Version | Previous Version | Graphics & Text | Print | Product List | Glossary On
Versions: 1 2 3 4 5 6 7 8 9 10 11 12 13 14 15 16 17 18 19 20 21 22 23 24 25
000
FTUS41 KRLX 152200 AAC
TAFCKB
TAF AMD
KCKB 152206Z 1522/1618 29012G18KT P6SM OVC015
     FM152300 29011G16KT P6SM OVC025
     FM160000 30013G19KT P6SM OVC035
     FM160200 31009KT P6SM BKN100
     FM160400 31006KT P6SM SCT200
     FM160800 00000KT P6SM SKC
     FM161500 01004KT P6SM SKC=

USA.gov is the U.S. government's official web portal to all federal, state and local government web resources and services.